Time;durP1;ratioP1;P1;durP2;ratioP2;P2;SDS_P1;SDS_P2;PMS_P1;PMS_P2;Temp;Humidity;BMP_temperature;BMP_pressure;BME280_temperature;BME280_humidity;BME280_pressure;Samples;Min_cycle;Max_cycle;Signal;HPM_P1;HPM_P2
2024/04/09 00:01:01;;;;;;;2.80;2.00;;;;;;;15.03;54.62;96483.09;108693;1272;22513;-74
2024/04/09 00:03:52;;;;;;;3.50;2.20;;;;;;;14.99;54.64;96485.04;108666;1272;25477;-73
2024/04/09 00:06:22;;;;;;;2.20;1.50;;;;;;;14.95;54.86;96485.78;108687;1272;22524;-74
2024/04/09 00:08:55;;;;;;;5.20;2.10;;;;;;;14.94;54.96;96490.55;108669;1272;22554;-74
2024/04/09 00:11:26;;;;;;;4.90;2.00;;;;;;;14.94;54.98;96491.38;108710;1272;22513;-74
2024/04/09 00:13:58;;;;;;;2.80;1.90;;;;;;;14.93;54.96;96490.37;108713;1266;22621;-74
2024/04/09 00:16:33;;;;;;;5.20;2.60;;;;;;;14.91;54.99;96484.91;108773;1272;24031;-74
2024/04/09 00:19:05;;;;;;;3.30;2.00;;;;;;;14.87;54.97;96480.66;108782;1268;22577;-74
2024/04/09 00:21:36;;;;;;;2.80;1.70;;;;;;;14.86;54.99;96480.88;108688;1272;22524;-74
2024/04/09 00:24:07;;;;;;;2.20;1.80;;;;;;;14.85;54.89;96475.85;108732;1268;25391;-74
2024/04/09 00:26:37;;;;;;;4.10;2.10;;;;;;;14.81;54.89;96472.27;108675;1272;22529;-73
2024/04/09 00:29:10;;;;;;;3.60;2.20;;;;;;;14.76;55.11;96471.85;108705;1271;22528;-74
2024/04/09 00:31:41;;;;;;;3.30;1.90;;;;;;;14.70;54.95;96469.13;108731;1272;22653;-74
2024/04/09 00:34:11;;;;;;;3.90;2.40;;;;;;;14.69;55.08;96460.63;108697;1272;23306;-73
2024/04/09 00:36:42;;;;;;;4.00;1.90;;;;;;;14.64;55.05;96462.80;108735;1266;22560;-74
2024/04/09 00:39:19;;;;;;;3.70;2.00;;;;;;;14.58;55.23;96462.05;108723;1272;25066;-74
2024/04/09 00:41:51;;;;;;;4.20;2.00;;;;;;;14.51;55.25;96456.90;108682;1272;23856;-73
2024/04/09 00:44:25;;;;;;;2.50;1.40;;;;;;;14.52;55.26;96452.92;108703;1267;25246;-74
2024/04/09 00:46:59;;;;;;;2.40;1.60;;;;;;;14.63;55.17;96452.90;108700;1272;22534;-73
2024/04/09 00:49:30;;;;;;;2.90;1.90;;;;;;;14.71;55.00;96448.45;108674;1268;22628;-74
2024/04/09 00:52:01;;;;;;;2.50;1.60;;;;;;;14.72;54.91;96446.03;108722;1272;22527;-73
2024/04/09 00:54:32;;;;;;;2.70;1.70;;;;;;;14.71;54.89;96446.12;108702;1272;23155;-74
2024/04/09 00:57:04;;;;;;;6.30;1.90;;;;;;;14.70;54.84;96447.95;108713;1272;22521;-73
2024/04/09 00:59:36;;;;;;;3.80;2.00;;;;;;;14.75;54.75;96449.08;108762;1256;22531;-73
2024/04/09 01:02:07;;;;;;;2.40;1.70;;;;;;;14.80;54.61;96446.67;108732;1272;25147;-73
2024/04/09 01:04:37;;;;;;;3.10;1.60;;;;;;;14.82;54.51;96444.05;108738;1272;23103;-73
2024/04/09 01:07:08;;;;;;;2.20;1.60;;;;;;;14.80;54.69;96448.34;108721;1272;22518;-73
2024/04/09 01:09:43;;;;;;;3.20;1.80;;;;;;;14.78;54.65;96445.94;108758;1272;22897;-73
2024/04/09 01:12:14;;;;;;;2.80;1.80;;;;;;;14.76;54.63;96444.91;108716;1272;22631;-73
2024/04/09 01:14:48;;;;;;;3.70;1.80;;;;;;;14.77;54.50;96442.81;108697;1272;24110;-73
2024/04/09 01:17:19;;;;;;;2.20;1.60;;;;;;;14.77;54.53;96443.02;108689;1273;23102;-73
2024/04/09 01:19:49;;;;;;;2.30;1.60;;;;;;;14.75;54.54;96444.34;108708;1272;22517;-74
2024/04/09 01:22:20;;;;;;;3.20;1.30;;;;;;;14.73;54.49;96447.13;108742;1272;25228;-73
2024/04/09 01:24:51;;;;;;;3.20;1.50;;;;;;;14.73;54.59;96445.47;108707;1268;22532;-73
2024/04/09 01:27:22;;;;;;;2.90;1.70;;;;;;;14.75;54.48;96447.64;108705;1272;24176;-73
2024/04/09 01:29:53;;;;;;;3.60;1.90;;;;;;;14.78;54.44;96442.83;108571;1272;189757;-73
2024/04/09 01:32:25;;;;;;;2.80;1.60;;;;;;;14.79;54.29;96445.77;108738;1272;22521;-74
2024/04/09 01:34:55;;;;;;;2.90;1.60;;;;;;;14.77;54.39;96444.92;108631;1269;22532;-73
2024/04/09 01:37:26;;;;;;;2.50;1.60;;;;;;;14.76;54.34;96441.71;108722;1272;22534;-74
2024/04/09 01:39:56;;;;;;;2.70;1.50;;;;;;;14.79;54.24;96440.89;108734;1268;24166;-73
2024/04/09 01:42:27;;;;;;;2.00;1.50;;;;;;;14.80;54.25;96441.65;108716;1272;22514;-73
2024/04/09 01:45:00;;;;;;;2.20;1.40;;;;;;;14.78;54.27;96437.48;108730;1266;25642;-73
2024/04/09 01:47:30;;;;;;;2.80;1.70;;;;;;;14.74;54.34;96437.31;108712;1272;22528;-73
2024/04/09 01:50:03;;;;;;;2.30;1.50;;;;;;;14.73;54.32;96440.54;108679;1272;22538;-74
2024/04/09 01:52:34;;;;;;;4.50;1.60;;;;;;;14.75;54.24;96431.84;108738;1268;22597;-74
2024/04/09 01:55:06;;;;;;;4.30;1.50;;;;;;;14.79;54.31;96432.66;108718;1269;24969;-74
2024/04/09 01:57:36;;;;;;;2.40;1.50;;;;;;;14.87;54.07;96426.84;108672;1272;25224;-73
2024/04/09 02:00:12;;;;;;;2.90;1.60;;;;;;;14.92;53.94;96426.27;108696;1272;22650;-74
2024/04/09 02:02:43;;;;;;;3.10;1.70;;;;;;;14.93;53.98;96427.71;108763;1272;25519;-74
2024/04/09 02:05:14;;;;;;;2.10;1.30;;;;;;;14.96;53.84;96425.73;108677;1269;22854;-73
2024/04/09 02:07:45;;;;;;;2.50;1.60;;;;;;;14.98;53.71;96424.55;108725;1268;24185;-73
2024/04/09 02:10:16;;;;;;;2.60;1.40;;;;;;;14.99;53.70;96419.14;108717;1267;24217;-73
2024/04/09 02:12:46;;;;;;;2.30;1.50;;;;;;;15.05;53.48;96422.00;108716;1269;22520;-73
2024/04/09 02:15:17;;;;;;;5.80;1.50;;;;;;;15.05;53.48;96424.33;108700;1272;24141;-73
2024/04/09 02:17:50;;;;;;;2.50;1.30;;;;;;;15.07;53.48;96427.88;108711;1271;22512;-74
2024/04/09 02:20:20;;;;;;;3.50;1.40;;;;;;;15.09;53.46;96430.48;108773;1272;22576;-73
2024/04/09 02:22:51;;;;;;;2.50;1.40;;;;;;;15.09;53.49;96425.27;108738;1269;22771;-73
2024/04/09 02:25:23;;;;;;;6.60;1.50;;;;;;;15.09;53.47;96427.13;108750;1272;22547;-74
2024/04/09 02:27:54;;;;;;;2.00;1.50;;;;;;;15.09;53.43;96425.27;108758;1272;24416;-73
2024/04/09 02:30:25;;;;;;;1.70;1.20;;;;;;;15.10;53.41;96424.58;108694;1272;24164;-73
2024/04/09 02:32:55;;;;;;;1.70;1.20;;;;;;;15.12;53.34;96422.06;108737;1272;22707;-73
2024/04/09 02:35:26;;;;;;;2.90;1.70;;;;;;;15.13;53.36;96427.06;108693;1269;22509;-74
2024/04/09 02:37:58;;;;;;;4.50;1.40;;;;;;;15.10;53.44;96424.42;108800;1272;22558;-73
2024/04/09 02:40:29;;;;;;;1.30;1.10;;;;;;;15.04;53.63;96424.30;108767;1272;22579;-73
2024/04/09 02:43:00;;;;;;;3.10;1.50;;;;;;;14.97;53.71;96421.88;108694;1272;22534;-73
2024/04/09 02:45:30;;;;;;;3.80;1.70;;;;;;;14.86;53.93;96419.92;108692;1272;25424;-73
2024/04/09 02:48:01;;;;;;;2.60;1.40;;;;;;;14.74;54.13;96419.55;108754;1272;22632;-73
2024/04/09 02:50:32;;;;;;;4.10;1.60;;;;;;;14.70;54.13;96422.45;108720;1273;22858;-73
2024/04/09 02:53:03;;;;;;;3.40;1.50;;;;;;;14.69;54.24;96424.84;108680;1269;22533;-73
2024/04/09 02:55:33;;;;;;;3.10;1.40;;;;;;;14.65;54.28;96426.97;108615;1273;22525;-73
2024/04/09 02:58:04;;;;;;;3.10;1.60;;;;;;;14.63;54.32;96426.96;108740;1251;22515;-74
2024/04/09 03:00:38;;;;;;;2.40;1.50;;;;;;;14.60;54.35;96426.87;108676;1273;22540;-73
2024/04/09 03:03:08;;;;;;;3.20;1.40;;;;;;;14.61;54.36;96429.52;108743;1272;25195;-73
2024/04/09 03:05:40;;;;;;;3.20;1.20;;;;;;;14.63;54.24;96429.73;108687;1272;26453;-74
2024/04/09 03:08:10;;;;;;;2.80;1.30;;;;;;;14.66;54.29;96429.25;108777;1271;24878;-74
2024/04/09 03:10:41;;;;;;;4.10;1.70;;;;;;;14.69;54.22;96427.83;108709;1273;22515;-74
2024/04/09 03:13:12;;;;;;;6.40;1.60;;;;;;;14.66;54.21;96426.19;108713;1265;24075;-73
2024/04/09 03:15:42;;;;;;;2.70;1.70;;;;;;;14.67;54.27;96425.89;108696;1272;22530;-74
2024/04/09 03:18:13;;;;;;;5.60;1.70;;;;;;;14.70;54.24;96425.93;108717;1272;22586;-74
2024/04/09 03:20:44;;;;;;;2.40;1.20;;;;;;;14.73;54.14;96419.63;108655;1273;22547;-74
2024/04/09 03:23:14;;;;;;;3.10;1.50;;;;;;;14.76;54.07;96418.23;108709;1268;22556;-74
2024/04/09 03:25:48;;;;;;;3.10;1.50;;;;;;;14.83;53.96;96419.14;108649;1272;23259;-74
2024/04/09 03:28:18;;;;;;;3.30;1.40;;;;;;;14.89;53.77;96420.88;108736;1272;25015;-74
2024/04/09 03:30:57;;;;;;;3.10;1.40;;;;;;;14.89;53.78;96425.45;108701;1261;22812;-74
2024/04/09 03:33:28;;;;;;;2.70;1.50;;;;;;;14.84;53.86;96422.12;108710;1272;23248;-74
2024/04/09 03:36:00;;;;;;;2.00;1.10;;;;;;;14.77;53.93;96423.16;108725;1272;22525;-74
2024/04/09 03:38:30;;;;;;;1.30;1.20;;;;;;;14.71;53.88;96419.31;108773;1271;26612;-73
2024/04/09 03:41:07;;;;;;;2.60;1.60;;;;;;;14.68;54.10;96417.61;110390;1251;23653;31
2024/04/09 03:43:39;;;;;;;2.30;1.60;;;;;;;14.67;54.30;96422.30;108195;1269;22534;-71
2024/04/09 03:46:11;;;;;;;6.00;1.50;;;;;;;14.68;54.39;96422.26;108426;1276;22516;-71
2024/04/09 03:48:43;;;;;;;2.80;1.30;;;;;;;14.66;54.40;96423.77;108414;1276;22536;-70
2024/04/09 03:51:15;;;;;;;2.20;1.50;;;;;;;14.66;54.38;96423.55;108464;1276;22534;-71
2024/04/09 03:53:49;;;;;;;2.70;1.40;;;;;;;14.59;54.42;96424.45;108459;1275;22542;-71
2024/04/09 03:56:19;;;;;;;2.50;1.20;;;;;;;14.48;54.67;96422.48;108541;1274;22554;-71
2024/04/09 03:58:51;;;;;;;3.00;1.80;;;;;;;14.45;54.74;96420.92;108537;1273;22645;-71
2024/04/09 04:01:21;;;;;;;3.20;1.70;;;;;;;14.41;54.78;96422.72;108518;1276;22519;-71
2024/04/09 04:03:52;;;;;;;4.10;1.30;;;;;;;14.36;54.97;96424.77;108537;1276;22539;-71
2024/04/09 04:06:22;;;;;;;2.40;1.20;;;;;;;14.36;55.18;96429.21;108521;1276;25345;-71
2024/04/09 04:08:55;;;;;;;3.10;1.30;;;;;;;14.33;55.19;96428.02;108537;1276;22617;-71
2024/04/09 04:11:25;;;;;;;2.00;1.40;;;;;;;14.36;55.25;96425.48;108504;1276;22525;-71
2024/04/09 04:13:56;;;;;;;2.10;1.10;;;;;;;14.43;55.12;96425.83;108498;1273;22535;-71
2024/04/09 04:16:26;;;;;;;2.80;1.20;;;;;;;14.44;55.05;96425.11;108506;1275;22539;-71
2024/04/09 04:18:57;;;;;;;2.70;1.70;;;;;;;14.45;55.03;96421.35;108518;1272;25391;-71
2024/04/09 04:21:27;;;;;;;2.20;1.20;;;;;;;14.49;54.98;96424.19;108509;1272;24915;-71
2024/04/09 04:23:58;;;;;;;1.80;1.20;;;;;;;14.52;54.90;96425.49;108490;1272;23226;-71
2024/04/09 04:26:29;;;;;;;2.60;1.40;;;;;;;14.61;54.82;96423.70;108563;1276;24505;-71
2024/04/09 04:29:00;;;;;;;1.60;1.50;;;;;;;14.73;54.52;96426.58;108503;1268;22569;-71
2024/04/09 04:31:31;;;;;;;3.10;1.20;;;;;;;14.85;54.41;96425.66;108523;1275;22521;-71
2024/04/09 04:34:01;;;;;;;3.90;1.60;;;;;;;14.85;54.30;96419.59;108485;1275;22578;-71
2024/04/09 04:36:32;;;;;;;1.60;1.30;;;;;;;14.88;54.30;96421.02;108548;1276;22553;-71
2024/04/09 04:39:04;;;;;;;2.50;1.50;;;;;;;15.00;54.27;96418.27;108480;1268;22542;-71
2024/04/09 04:41:35;;;;;;;1.70;1.20;;;;;;;15.17;54.24;96417.18;108545;1272;25268;-71
2024/04/09 04:44:08;;;;;;;3.00;1.50;;;;;;;15.38;54.08;96413.11;108482;1275;22543;-71
2024/04/09 04:46:39;;;;;;;3.00;1.60;;;;;;;15.56;54.09;96411.16;108552;1267;22603;-71
2024/04/09 04:49:10;;;;;;;4.60;1.50;;;;;;;15.72;54.16;96407.92;108504;1276;22548;-71
2024/04/09 04:51:41;;;;;;;2.40;1.60;;;;;;;16.25;53.84;96406.54;108526;1275;22542;-71
2024/04/09 04:54:12;;;;;;;2.80;1.60;;;;;;;16.72;52.82;96409.17;108487;1275;22536;-71
2024/04/09 04:56:43;;;;;;;3.10;1.60;;;;;;;16.75;52.32;96409.00;108529;1275;22525;-71
2024/04/09 04:59:16;;;;;;;3.90;1.90;;;;;;;17.01;52.12;96407.48;108503;1276;22526;-71
2024/04/09 05:01:47;;;;;;;2.20;1.60;;;;;;;17.50;51.56;96406.80;108514;1275;22533;-71
2024/04/09 05:04:17;;;;;;;4.20;1.80;;;;;;;18.00;50.17;96406.86;108523;1276;22527;-71
2024/04/09 05:06:48;;;;;;;2.90;1.70;;;;;;;18.57;49.45;96407.17;108465;1276;22543;-71
2024/04/09 05:09:19;;;;;;;4.60;1.40;;;;;;;19.56;48.89;96410.14;108512;1276;22538;-71
2024/04/09 05:11:49;;;;;;;2.20;1.60;;;;;;;20.62;47.56;96405.75;108544;1275;22523;-71
2024/04/09 05:14:21;;;;;;;2.90;1.30;;;;;;;21.45;46.21;96403.84;108468;1276;25591;-71
2024/04/09 05:16:51;;;;;;;2.70;1.70;;;;;;;21.78;44.17;96403.98;108500;1269;22516;-71
2024/04/09 05:19:23;;;;;;;2.60;1.60;;;;;;;21.97;43.57;96398.50;108511;1276;25500;-71
2024/04/09 05:21:53;;;;;;;1.80;1.60;;;;;;;22.48;42.97;96400.45;108534;1270;22560;-71
2024/04/09 05:24:24;;;;;;;2.60;1.40;;;;;;;22.73;41.10;96395.98;108468;1275;22553;-71
2024/04/09 05:26:54;;;;;;;4.00;1.30;;;;;;;22.22;41.00;96393.02;108521;1276;23654;-71
2024/04/09 05:29:25;;;;;;;2.30;1.30;;;;;;;21.46;41.27;96393.63;108544;1274;25342;-71
2024/04/09 05:31:55;;;;;;;3.30;1.50;;;;;;;21.09;41.69;96399.96;108502;1271;22538;-71
2024/04/09 05:34:26;;;;;;;4.30;1.20;;;;;;;20.90;41.57;96397.06;108518;1274;22528;-71
2024/04/09 05:36:57;;;;;;;1.50;1.10;;;;;;;21.06;41.79;96394.64;108502;1276;22525;-71
2024/04/09 05:39:27;;;;;;;1.50;1.20;;;;;;;21.70;41.86;96393.11;108513;1273;22610;-71
2024/04/09 05:41:58;;;;;;;2.60;1.30;;;;;;;22.61;40.86;96389.71;108530;1270;22562;-71
2024/04/09 05:44:28;;;;;;;2.60;1.10;;;;;;;23.62;39.77;96392.75;108481;1276;22523;-71
2024/04/09 05:46:59;;;;;;;1.70;1.30;;;;;;;24.24;37.99;96391.08;108479;1276;22666;-71
2024/04/09 05:49:29;;;;;;;2.60;1.30;;;;;;;24.38;36.95;96390.06;108500;1272;22557;-72
2024/04/09 05:52:00;;;;;;;1.80;1.30;;;;;;;24.49;36.67;96395.05;108500;1265;22543;-71
2024/04/09 05:54:33;;;;;;;2.60;1.20;;;;;;;25.58;38.25;96391.77;108475;1276;22540;-71
2024/04/09 05:57:05;;;;;;;2.70;1.20;;;;;;;26.92;36.48;96387.24;108505;1272;24358;-71
2024/04/09 05:59:35;;;;;;;3.40;1.40;;;;;;;27.22;35.35;96391.66;108485;1276;24154;-71
2024/04/09 06:02:07;;;;;;;3.20;1.50;;;;;;;26.62;35.27;96395.48;108470;1276;22522;-72
2024/04/09 06:04:38;;;;;;;1.90;1.00;;;;;;;26.40;35.35;96398.55;108476;1276;22651;-72
2024/04/09 06:07:08;;;;;;;3.30;1.50;;;;;;;26.13;35.44;96397.23;108503;1275;25440;-71
2024/04/09 06:09:39;;;;;;;2.50;1.10;;;;;;;25.57;35.04;96396.45;108497;1270;22642;-71
2024/04/09 06:12:10;;;;;;;1.80;1.20;;;;;;;25.70;35.10;96396.75;108496;1275;22540;-72
2024/04/09 06:14:40;;;;;;;4.60;1.30;;;;;;;26.52;35.64;96393.88;108481;1269;22537;-72
2024/04/09 06:17:11;;;;;;;2.20;1.40;;;;;;;27.92;34.38;96394.79;108486;1275;25474;-72
2024/04/09 06:19:42;;;;;;;3.30;1.20;;;;;;;28.97;33.36;96393.89;108498;1276;22544;-72
2024/04/09 06:22:13;;;;;;;2.90;1.50;;;;;;;30.11;32.24;96392.08;108490;1264;22527;-72
2024/04/09 06:24:47;;;;;;;5.60;1.40;;;;;;;29.29;31.30;96392.98;108525;1276;24281;-72
2024/04/09 06:27:18;;;;;;;2.40;1.20;;;;;;;28.11;31.56;96395.48;108492;1276;22650;-71
2024/04/09 06:29:49;;;;;;;4.80;1.60;;;;;;;26.62;32.27;96392.90;108506;1276;22526;-71
2024/04/09 06:32:20;;;;;;;4.40;1.50;;;;;;;26.48;33.20;96393.75;108455;1276;22529;-72
2024/04/09 06:34:51;;;;;;;2.30;1.20;;;;;;;26.74;33.24;96393.84;108466;1276;23257;-71
2024/04/09 06:37:22;;;;;;;2.70;1.20;;;;;;;26.85;32.56;96394.85;108462;1276;22936;-71
2024/04/09 06:39:53;;;;;;;3.60;1.30;;;;;;;27.49;32.96;96390.65;108468;1268;25531;-72
2024/04/09 06:42:24;;;;;;;4.50;1.30;;;;;;;28.77;31.40;96391.34;108441;1276;22579;-72
2024/04/09 06:44:54;;;;;;;2.90;1.20;;;;;;;29.79;31.30;96389.71;108499;1276;22933;-71
2024/04/09 06:47:25;;;;;;;1.50;1.10;;;;;;;30.60;30.18;96395.62;108473;1268;22562;-72
2024/04/09 06:49:58;;;;;;;3.30;1.30;;;;;;;31.01;29.28;96391.38;108486;1270;22642;-72
2024/04/09 06:52:28;;;;;;;1.80;1.10;;;;;;;31.26;28.70;96388.38;108477;1275;22533;-72
2024/04/09 06:54:59;;;;;;;2.70;1.10;;;;;;;32.01;28.82;96390.53;108520;1275;22837;-72
2024/04/09 06:57:30;;;;;;;3.60;1.50;;;;;;;32.96;28.78;96384.78;108490;1272;25247;-72
2024/04/09 07:00:01;;;;;;;3.40;1.40;;;;;;;33.93;27.44;96385.77;108511;1275;22537;-72
2024/04/09 07:02:38;;;;;;;1.90;1.30;;;;;;;33.99;26.10;96383.95;108499;1271;25259;-72
2024/04/09 07:05:09;;;;;;;2.60;1.30;;;;;;;34.15;26.13;96382.06;108479;1273;25307;-72
2024/04/09 07:07:41;;;;;;;1.70;1.10;;;;;;;34.73;25.82;96381.30;108491;1272;25550;-72
2024/04/09 07:10:13;;;;;;;3.60;1.60;;;;;;;34.16;25.30;96380.75;108510;1273;22532;-72
2024/04/09 07:12:44;;;;;;;2.10;1.10;;;;;;;33.87;25.84;96378.48;108465;1275;22809;-72
2024/04/09 07:15:16;;;;;;;4.00;1.10;;;;;;;34.13;25.74;96375.73;108472;1275;23174;-72
2024/04/09 07:17:49;;;;;;;1.70;1.10;;;;;;;34.28;25.38;96374.59;108433;1275;22524;-72
2024/04/09 07:20:19;;;;;;;2.80;1.00;;;;;;;34.43;25.36;96372.27;108486;1275;26585;-72
2024/04/09 07:22:50;;;;;;;2.50;1.10;;;;;;;35.01;25.01;96377.33;108482;1276;23325;-72
2024/04/09 07:25:21;;;;;;;2.50;1.30;;;;;;;36.14;25.11;96373.94;108467;1275;22528;-72
2024/04/09 07:27:52;;;;;;;2.40;1.20;;;;;;;36.29;23.28;96377.12;108502;1275;24256;-72
2024/04/09 07:30:24;;;;;;;3.20;1.50;;;;;;;35.67;23.58;96379.45;108459;1275;22530;-72
2024/04/09 07:32:57;;;;;;;3.20;1.20;;;;;;;36.17;24.34;96376.46;108609;1275;24285;-72
2024/04/09 07:35:28;;;;;;;3.20;1.20;;;;;;;36.59;23.85;96376.56;108471;1274;22544;-72
2024/04/09 07:38:00;;;;;;;2.60;1.30;;;;;;;36.58;23.57;96377.32;108472;1276;22526;-72
2024/04/09 07:40:31;;;;;;;2.20;1.10;;;;;;;37.09;23.32;96377.31;108473;1275;22537;-72
2024/04/09 07:43:02;;;;;;;3.10;1.20;;;;;;;36.89;23.34;96380.49;108476;1275;22538;-72
2024/04/09 07:45:33;;;;;;;3.40;1.50;;;;;;;36.95;22.87;96372.29;108478;1269;22679;-73
2024/04/09 07:48:04;;;;;;;3.10;1.70;;;;;;;35.20;23.05;96370.06;108510;1275;22526;-72
2024/04/09 07:50:35;;;;;;;2.20;1.20;;;;;;;34.92;23.98;96371.66;108495;1274;23522;-72
2024/04/09 07:53:08;;;;;;;3.90;1.60;;;;;;;35.31;24.17;96370.09;108492;1275;22558;-72
2024/04/09 07:55:39;;;;;;;4.40;1.30;;;;;;;35.99;24.21;96374.70;108457;1275;22549;-72
2024/04/09 07:58:12;;;;;;;2.80;1.30;;;;;;;36.30;23.44;96375.09;108489;1270;22726;-72
2024/04/09 08:00:44;;;;;;;3.60;1.40;;;;;;;36.04;22.76;96373.09;108475;1273;22525;-72
2024/04/09 08:03:19;;;;;;;2.50;1.60;;;;;;;35.97;23.77;96375.60;108526;1275;22563;-72
2024/04/09 08:05:51;;;;;;;3.70;2.10;;;;;;;36.36;22.90;96374.63;108467;1270;25557;-71
2024/04/09 08:08:21;;;;;;;2.10;1.50;;;;;;;36.59;23.17;96374.60;108477;1275;22547;-72
2024/04/09 08:10:55;;;;;;;2.60;1.40;;;;;;;36.86;22.51;96372.98;108427;1275;23433;-72
2024/04/09 08:13:25;;;;;;;2.10;1.30;;;;;;;36.20;22.35;96367.73;108456;1270;23100;-71
2024/04/09 08:15:56;;;;;;;3.10;1.70;;;;;;;35.59;22.34;96372.77;108498;1275;22670;-72
2024/04/09 08:18:27;;;;;;;3.30;1.50;;;;;;;35.38;23.02;96372.47;108465;1275;22534;-72
2024/04/09 08:20:58;;;;;;;1.80;1.40;;;;;;;35.24;23.51;96371.48;108458;1273;22519;-71
2024/04/09 08:23:30;;;;;;;2.50;1.30;;;;;;;34.63;22.63;96368.55;108435;1270;25301;-71
2024/04/09 08:26:01;;;;;;;6.00;1.40;;;;;;;33.88;22.94;96367.98;108496;1276;22539;-71
2024/04/09 08:28:34;;;;;;;5.00;1.70;;;;;;;33.82;23.33;96368.63;108461;1273;24363;-72
2024/04/09 08:31:11;;;;;;;3.90;1.50;;;;;;;33.52;23.68;96370.09;108452;1270;22540;-71
2024/04/09 08:33:42;;;;;;;3.00;1.50;;;;;;;33.28;24.00;96363.96;108457;1275;24633;-71
2024/04/09 08:36:12;;;;;;;2.30;1.30;;;;;;;34.13;23.88;96356.39;108485;1274;22903;-71
2024/04/09 08:38:43;;;;;;;2.60;1.30;;;;;;;34.07;22.93;96353.00;108491;1270;22659;-71
2024/04/09 08:41:16;;;;;;;3.50;1.30;;;;;;;34.27;23.28;96349.79;108486;1275;22548;-71
2024/04/09 08:43:48;;;;;;;2.90;1.40;;;;;;;34.54;23.25;96347.14;108438;1275;26185;-72
2024/04/09 08:46:20;;;;;;;2.10;1.20;;;;;;;34.31;22.50;96348.96;108483;1270;22533;-71
2024/04/09 08:48:53;;;;;;;4.70;2.00;;;;;;;33.74;22.89;96345.34;108451;1275;22565;-71
2024/04/09 08:51:24;;;;;;;3.90;1.40;;;;;;;32.07;23.54;96346.94;108528;1273;23235;-71
2024/04/09 08:53:55;;;;;;;4.80;1.90;;;;;;;30.10;25.51;96342.94;108447;1275;22523;-71
2024/04/09 08:56:29;;;;;;;4.50;2.00;;;;;;;29.23;26.67;96343.67;108473;1275;22566;-71
2024/04/09 08:59:04;;;;;;;2.00;1.40;;;;;;;28.57;27.40;96348.62;108481;1275;22525;-71
2024/04/09 09:01:35;;;;;;;2.00;1.20;;;;;;;27.69;27.85;96345.38;108463;1276;22706;-71
2024/04/09 09:04:06;;;;;;;3.50;1.30;;;;;;;26.91;29.20;96343.64;108443;1275;25460;-72
2024/04/09 09:06:46;;;;;;;2.50;1.50;;;;;;;26.78;29.98;96337.03;108472;1275;22571;-71
2024/04/09 09:09:26;;;;;;;3.70;1.50;;;;;;;26.69;30.68;96338.98;108472;1276;22632;-71
2024/04/09 09:12:05;;;;;;;2.40;1.50;;;;;;;26.89;30.75;96337.18;108467;1275;25414;-71
2024/04/09 09:14:36;;;;;;;3.40;1.50;;;;;;;26.93;30.63;96330.10;108509;1273;22527;-72
2024/04/09 09:17:09;;;;;;;4.40;2.00;;;;;;;26.54;31.47;96325.08;108498;1273;24243;-72
2024/04/09 09:19:39;;;;;;;2.60;1.60;;;;;;;26.62;32.13;96323.61;108469;1270;22574;-72
2024/04/09 09:22:11;;;;;;;4.40;1.90;;;;;;;26.50;31.67;96321.27;108458;1273;25246;-72
2024/04/09 09:24:42;;;;;;;2.20;1.40;;;;;;;25.90;32.52;96320.95;108480;1276;22540;-71
2024/04/09 09:27:12;;;;;;;2.10;1.30;;;;;;;25.67;33.29;96309.79;108460;1276;26486;-72
2024/04/09 09:29:44;;;;;;;2.50;1.40;;;;;;;25.23;33.28;96313.31;108467;1275;22696;-72
2024/04/09 09:32:21;;;;;;;3.00;1.30;;;;;;;24.93;33.95;96307.02;108441;1266;22537;-72
2024/04/09 09:34:55;;;;;;;4.70;1.50;;;;;;;24.61;34.60;96301.91;108465;1267;24265;-72
2024/04/09 09:37:28;;;;;;;1.90;1.10;;;;;;;24.34;34.96;96298.45;108466;1275;22639;-72
2024/04/09 09:40:01;;;;;;;1.80;1.20;;;;;;;24.09;35.09;96295.81;108512;1273;23111;-72
2024/04/09 09:42:35;;;;;;;3.30;1.70;;;;;;;23.86;35.37;96299.15;108474;1275;22541;-72
2024/04/09 09:45:09;;;;;;;2.70;1.30;;;;;;;23.71;35.86;96301.70;108449;1276;22576;-72
2024/04/09 09:47:41;;;;;;;2.70;1.30;;;;;;;23.69;36.37;96299.52;108455;1272;22595;-72
2024/04/09 09:50:12;;;;;;;3.10;1.40;;;;;;;23.82;37.07;96296.09;108536;1273;25408;-71
2024/04/09 09:52:44;;;;;;;3.00;1.30;;;;;;;24.10;37.68;96289.09;108428;1270;22570;-72
2024/04/09 09:55:15;;;;;;;3.10;1.50;;;;;;;24.32;36.91;96287.59;108434;1267;22586;-71
2024/04/09 09:57:53;;;;;;;2.70;1.50;;;;;;;24.30;37.05;96288.42;108469;1275;22533;-72
2024/04/09 10:00:26;;;;;;;3.20;1.90;;;;;;;24.34;36.75;96285.30;108465;1276;22521;-71
2024/04/09 10:02:59;;;;;;;3.00;1.50;;;;;;;24.36;36.82;96284.92;108447;1275;22746;-72
2024/04/09 10:05:32;;;;;;;1.60;1.20;;;;;;;24.31;37.00;96275.50;108515;1270;22526;-71
2024/04/09 10:08:13;;;;;;;4.90;1.70;;;;;;;24.28;37.10;96273.69;108459;1273;22665;-72
2024/04/09 10:10:45;;;;;;;4.20;1.50;;;;;;;24.33;37.02;96274.75;108464;1275;22529;-71
2024/04/09 10:13:18;;;;;;;2.50;1.50;;;;;;;24.66;37.27;96271.43;108493;1270;25339;-71
2024/04/09 10:15:49;;;;;;;3.80;1.50;;;;;;;25.03;37.00;96268.88;108507;1275;22759;-72
2024/04/09 10:18:37;;;;;;;5.10;1.30;;;;;;;25.32;37.51;96268.08;108464;1273;22533;-72
2024/04/09 10:21:11;;;;;;;4.60;1.40;;;;;;;25.59;36.46;96266.52;108484;1276;23292;-71
2024/04/09 10:23:42;;;;;;;3.20;1.30;;;;;;;25.42;36.24;96259.35;108491;1275;26487;-71
2024/04/09 10:26:16;;;;;;;2.70;1.40;;;;;;;25.21;36.62;96255.55;108487;1275;22536;-71
2024/04/09 10:28:47;;;;;;;5.50;1.90;;;;;;;25.18;37.07;96252.91;108500;1267;22584;-71
2024/04/09 10:31:19;;;;;;;2.80;1.50;;;;;;;25.24;36.99;96251.62;108457;1275;22854;-72
2024/04/09 10:33:59;;;;;;;2.30;1.40;;;;;;;25.24;36.76;96249.30;108529;1269;22658;-71
2024/04/09 10:36:29;;;;;;;3.10;1.30;;;;;;;25.14;37.97;96250.88;108504;1275;22558;-72
2024/04/09 10:39:01;;;;;;;5.10;1.50;;;;;;;25.14;37.75;96248.16;108450;1275;22561;-71
2024/04/09 10:41:37;;;;;;;2.60;1.50;;;;;;;25.10;36.95;96244.59;108479;1275;22568;-71
2024/04/09 10:44:09;;;;;;;2.10;1.20;;;;;;;25.09;37.05;96244.50;108457;1270;22543;-71
2024/04/09 10:46:40;;;;;;;3.80;1.60;;;;;;;25.08;37.07;96238.61;108536;1275;25426;-72
2024/04/09 10:49:14;;;;;;;4.30;1.70;;;;;;;25.06;37.23;96235.19;108489;1275;22537;-71
2024/04/09 10:51:45;;;;;;;2.10;1.40;;;;;;;25.10;37.10;96235.98;108501;1275;22532;-72
2024/04/09 10:54:16;;;;;;;3.00;1.40;;;;;;;25.24;37.26;96233.23;108473;1275;22531;-72
2024/04/09 10:56:47;;;;;;;3.90;1.50;;;;;;;25.37;36.91;96234.99;108474;1275;25279;-72
2024/04/09 10:59:21;;;;;;;2.80;1.40;;;;;;;25.51;36.72;96229.99;108473;1275;22645;-71
2024/04/09 11:01:52;;;;;;;3.40;1.40;;;;;;;25.66;36.95;96227.39;108478;1275;22529;-71
2024/04/09 11:04:24;;;;;;;4.10;1.90;;;;;;;25.76;36.68;96225.34;108484;1275;22582;-72
2024/04/09 11:06:56;;;;;;;2.90;1.50;;;;;;;25.86;36.59;96223.23;108470;1267;22761;-71
2024/04/09 11:09:27;;;;;;;3.60;1.40;;;;;;;25.81;36.48;96218.59;108513;1275;22546;-71
2024/04/09 11:11:59;;;;;;;3.90;1.40;;;;;;;25.62;35.69;96214.03;108560;1275;22541;-71
2024/04/09 11:14:30;;;;;;;3.10;1.60;;;;;;;25.50;36.79;96209.67;108458;1275;22566;-71
2024/04/09 11:17:01;;;;;;;2.30;1.50;;;;;;;25.39;36.46;96204.91;108561;1275;22554;-71
2024/04/09 11:19:32;;;;;;;2.00;1.50;;;;;;;25.35;36.40;96205.30;108483;1275;22546;-72
2024/04/09 11:22:04;;;;;;;1.90;1.20;;;;;;;25.38;36.14;96203.90;108502;1275;22537;-71
2024/04/09 11:24:36;;;;;;;1.40;1.10;;;;;;;25.28;36.79;96204.58;108481;1275;22538;-71
2024/04/09 11:27:07;;;;;;;2.90;1.50;;;;;;;25.21;36.48;96206.04;108505;1275;22527;-72
2024/04/09 11:29:47;;;;;;;4.50;1.70;;;;;;;25.33;37.13;96197.84;108482;1273;24377;-71
2024/04/09 11:32:18;;;;;;;2.30;1.20;;;;;;;25.64;37.41;96196.20;108474;1273;22540;-72
2024/04/09 11:34:48;;;;;;;2.40;1.40;;;;;;;25.72;35.83;96194.45;108496;1275;24251;-71
2024/04/09 11:37:22;;;;;;;5.10;1.90;;;;;;;25.77;35.84;96191.59;108492;1275;22540;-72
2024/04/09 11:39:52;;;;;;;2.70;1.30;;;;;;;25.90;35.69;96193.69;108486;1268;22529;-71
2024/04/09 11:42:26;;;;;;;3.60;1.50;;;;;;;25.98;35.55;96192.98;108435;1268;22567;-72
2024/04/09 11:45:02;;;;;;;2.40;1.30;;;;;;;26.09;35.00;96185.69;108478;1273;23856;-72